createdAt,value
2022-10-26T00:00:50.859Z,4.33
2022-10-26T00:03:18.010Z,4.67
2022-10-26T00:05:44.961Z,3.73
2022-10-26T00:08:11.753Z,4.10
2022-10-26T00:10:39.165Z,3.80
2022-10-26T00:13:09.743Z,4.17
2022-10-26T00:15:40.167Z,4.10
2022-10-26T00:18:06.772Z,3.57
2022-10-26T00:20:33.344Z,3.77
2022-10-26T00:22:59.910Z,3.37
2022-10-26T00:25:26.414Z,3.50
2022-10-26T00:27:53.138Z,3.43
2022-10-26T00:30:19.686Z,3.93
2022-10-26T00:32:46.284Z,4.00
2022-10-26T00:35:23.055Z,3.80
2022-10-26T00:37:59.877Z,4.10
2022-10-26T00:40:30.035Z,4.13
2022-10-26T00:42:56.733Z,3.70
2022-10-26T00:45:29.154Z,4.20
2022-10-26T00:48:02.951Z,4.00
2022-10-26T00:50:36.766Z,3.93
2022-10-26T00:53:06.391Z,3.80
2022-10-26T00:55:37.452Z,4.10
2022-10-26T00:58:07.168Z,4.00
2022-10-26T01:00:33.756Z,3.87
2022-10-26T01:03:04.422Z,4.37
2022-10-26T01:05:32.157Z,3.90
2022-10-26T01:07:58.817Z,3.63
2022-10-26T01:10:26.461Z,3.80
2022-10-26T01:12:54.537Z,3.63
2022-10-26T01:15:25.107Z,3.73
2022-10-26T01:18:02.461Z,3.70
2022-10-26T01:20:42.794Z,3.63
2022-10-26T01:23:16.239Z,4.10
2022-10-26T01:26:13.370Z,3.70
2022-10-26T01:29:19.926Z,3.53
2022-10-26T01:31:59.934Z,4.00
2022-10-26T01:34:36.130Z,4.20
2022-10-26T01:37:11.996Z,4.20
2022-10-26T01:39:44.935Z,4.00
2022-10-26T01:42:15.572Z,4.00
2022-10-26T01:45:03.446Z,4.23
2022-10-26T01:47:33.714Z,4.07
2022-10-26T01:50:02.333Z,4.30
2022-10-26T01:52:29.140Z,4.03
2022-10-26T01:55:03.344Z,4.37
2022-10-26T01:57:35.284Z,4.27
2022-10-26T02:00:11.871Z,4.40
2022-10-26T02:03:01.797Z,4.10
2022-10-26T02:05:51.209Z,4.80
2022-10-26T02:08:31.248Z,4.77
2022-10-26T02:11:06.907Z,4.80
2022-10-26T02:13:48.341Z,4.57
2022-10-26T02:16:28.889Z,5.10
2022-10-26T02:19:06.152Z,5.37
2022-10-26T02:21:39.438Z,4.70
2022-10-26T02:24:10.417Z,5.40
2022-10-26T02:26:40.987Z,5.03
2022-10-26T02:29:11.387Z,5.40
2022-10-26T02:31:39.293Z,4.77
2022-10-26T02:34:09.551Z,4.73
2022-10-26T02:36:41.542Z,4.67
2022-10-26T02:39:10.090Z,5.00
2022-10-26T02:41:39.767Z,4.73
2022-10-26T02:44:14.509Z,4.67
2022-10-26T02:46:42.229Z,4.80
2022-10-26T02:49:08.805Z,4.63
2022-10-26T02:51:43.877Z,5.43
2022-10-26T02:54:13.436Z,5.30
2022-10-26T02:56:54.321Z,4.80
2022-10-26T02:59:24.861Z,5.67
2022-10-26T03:01:52.793Z,5.40
2022-10-26T03:04:19.727Z,4.87
2022-10-26T03:06:54.183Z,4.80
2022-10-26T03:09:23.492Z,5.07
2022-10-26T03:11:52.502Z,5.50
2022-10-26T03:14:19.333Z,4.83
2022-10-26T03:16:46.022Z,5.17
2022-10-26T03:19:12.777Z,4.47
2022-10-26T03:21:39.326Z,4.97
2022-10-26T03:24:06.445Z,4.60
2022-10-26T03:26:33.001Z,4.53
2022-10-26T03:28:59.639Z,4.53
2022-10-26T03:31:26.331Z,4.80
2022-10-26T03:33:52.845Z,5.10
2022-10-26T03:36:19.440Z,5.10
2022-10-26T03:38:45.999Z,4.80
2022-10-26T03:41:12.592Z,4.50
2022-10-26T03:43:39.090Z,4.53
2022-10-26T03:46:05.771Z,4.77
2022-10-26T03:48:32.267Z,5.10
2022-10-26T03:50:59.195Z,4.70
2022-10-26T03:53:26.400Z,4.80
2022-10-26T03:55:52.960Z,4.17
2022-10-26T03:58:19.511Z,4.30
2022-10-26T04:00:47.527Z,5.13
2022-10-26T04:03:14.052Z,4.83
2022-10-26T04:05:40.623Z,4.47
2022-10-26T04:08:08.356Z,4.83
2022-10-26T04:10:34.990Z,4.53
2022-10-26T04:13:01.538Z,4.73
2022-10-26T04:15:28.830Z,5.13
2022-10-26T04:17:57.067Z,5.30
2022-10-26T04:20:24.355Z,5.10
2022-10-26T04:23:01.445Z,5.27
2022-10-26T04:25:31.796Z,5.20
2022-10-26T04:28:00.943Z,5.13
2022-10-26T04:30:27.855Z,5.13
2022-10-26T04:32:54.425Z,5.33
2022-10-26T04:35:21.242Z,5.40
2022-10-26T04:37:47.964Z,5.60
2022-10-26T04:40:14.664Z,5.50
2022-10-26T04:42:45.491Z,5.90
2022-10-26T04:45:14.393Z,5.67
2022-10-26T04:47:41.565Z,5.03
2022-10-26T04:50:09.722Z,5.60
2022-10-26T04:52:36.920Z,5.17
2022-10-26T04:55:04.307Z,5.43
2022-10-26T04:57:30.822Z,5.57
2022-10-26T04:59:57.474Z,5.27
2022-10-26T05:02:24.057Z,5.43
2022-10-26T05:04:50.768Z,4.93
2022-10-26T05:07:17.345Z,5.40
2022-10-26T05:09:43.990Z,5.63
2022-10-26T05:12:10.548Z,5.10
2022-10-26T05:14:37.171Z,5.50
2022-10-26T05:17:03.733Z,5.67
2022-10-26T05:19:30.373Z,5.17
2022-10-26T05:21:58.319Z,4.83
2022-10-26T05:24:24.936Z,5.07
2022-10-26T05:26:51.478Z,5.07
2022-10-26T05:29:18.091Z,5.20
2022-10-26T05:31:44.602Z,5.10
2022-10-26T05:34:11.187Z,4.67
2022-10-26T05:36:37.830Z,4.57
2022-10-26T05:39:04.615Z,4.90
2022-10-26T05:41:31.124Z,5.03
2022-10-26T05:43:57.797Z,5.10
2022-10-26T05:46:24.291Z,5.00
2022-10-26T05:48:50.883Z,5.33
2022-10-26T05:51:17.437Z,5.50
2022-10-26T05:53:44.106Z,5.10
2022-10-26T05:56:19.294Z,5.00
2022-10-26T05:58:47.059Z,4.93
2022-10-26T06:01:31.521Z,5.10
2022-10-26T06:04:17.670Z,5.00
2022-10-26T06:06:47.855Z,5.00
2022-10-26T06:09:15.185Z,4.90
2022-10-26T06:11:42.170Z,4.97
2022-10-26T06:14:09.966Z,5.27
2022-10-26T06:16:54.487Z,4.77
2022-10-26T06:19:39.267Z,4.70
2022-10-26T06:22:08.910Z,4.60
2022-10-26T06:25:02.759Z,4.50
2022-10-26T06:27:46.146Z,4.80
2022-10-26T06:30:12.849Z,5.00
2022-10-26T06:32:43.546Z,4.93
2022-10-26T06:35:21.944Z,4.93
2022-10-26T06:37:49.945Z,4.87
2022-10-26T06:40:18.078Z,5.20
2022-10-26T06:42:45.443Z,5.23
2022-10-26T06:45:16.548Z,4.73
2022-10-26T06:48:00.491Z,4.67
2022-10-26T06:50:37.364Z,4.80
2022-10-26T06:53:25.879Z,4.90
2022-10-26T06:55:52.944Z,4.80
2022-10-26T06:58:27.725Z,4.80
2022-10-26T07:00:55.841Z,4.90
2022-10-26T07:03:22.556Z,5.43
2022-10-26T07:05:49.742Z,5.33
2022-10-26T07:08:16.298Z,4.87
2022-10-26T07:10:42.918Z,4.73
2022-10-26T07:13:10.754Z,4.90
2022-10-26T07:15:39.189Z,5.17
2022-10-26T07:18:07.347Z,5.73
2022-10-26T07:20:39.200Z,5.63
2022-10-26T07:23:07.003Z,5.50
2022-10-26T07:25:35.438Z,6.13
2022-10-26T07:28:02.438Z,6.10
2022-10-26T07:30:29.728Z,6.17
2022-10-26T07:33:13.202Z,5.80
2022-10-26T07:35:40.616Z,6.27
2022-10-26T07:38:07.725Z,5.60
2022-10-26T07:40:34.463Z,5.70
2022-10-26T07:43:01.075Z,5.83
2022-10-26T07:45:28.826Z,5.63
2022-10-26T07:47:55.869Z,5.27
2022-10-26T07:50:23.069Z,5.60
2022-10-26T07:52:50.002Z,5.53
2022-10-26T07:55:17.034Z,5.70
2022-10-26T07:57:43.535Z,6.37
2022-10-26T08:00:11.038Z,5.70
2022-10-26T08:02:37.611Z,4.80
2022-10-26T08:05:07.818Z,5.35
2022-10-26T08:07:40.123Z,4.87
2022-10-26T08:10:07.107Z,5.60
2022-10-26T08:12:33.625Z,5.97
2022-10-26T08:15:00.262Z,5.47
2022-10-26T08:17:28.144Z,5.13
2022-10-26T08:19:54.737Z,5.20
2022-10-26T08:22:21.276Z,4.00
2022-10-26T08:24:47.881Z,4.50
2022-10-26T08:27:15.057Z,3.50
2022-10-26T08:29:42.482Z,3.72
2022-10-26T08:32:09.148Z,3.35
2022-10-26T08:34:35.721Z,3.78
2022-10-26T08:37:02.312Z,3.42
2022-10-26T08:39:28.940Z,2.90
2022-10-26T08:42:03.481Z,3.08
2022-10-26T08:44:40.308Z,2.80
2022-10-26T08:47:21.965Z,3.08
2022-10-26T08:49:51.744Z,3.20
2022-10-26T08:52:24.880Z,3.00
2022-10-26T08:54:57.494Z,2.80
2022-10-26T08:57:39.252Z,3.00
2022-10-26T09:00:11.536Z,2.70
2022-10-26T09:02:38.159Z,2.63
2022-10-26T09:05:15.567Z,2.45
2022-10-26T09:07:54.496Z,3.22
2022-10-26T09:10:39.252Z,5.03
2022-10-26T09:13:23.565Z,4.97
2022-10-26T09:16:14.383Z,4.43
2022-10-26T09:18:57.810Z,5.20
2022-10-26T09:21:32.885Z,4.43
2022-10-26T09:24:06.888Z,3.95
2022-10-26T09:26:53.907Z,3.70
2022-10-26T09:29:26.853Z,3.22
2022-10-26T09:31:57.377Z,3.50
2022-10-26T09:34:41.046Z,3.83
2022-10-26T09:37:19.967Z,3.65
2022-10-26T09:40:05.129Z,3.65
2022-10-26T09:42:44.919Z,3.42
2022-10-26T09:45:32.720Z,3.25
2022-10-26T09:48:19.550Z,3.30
2022-10-26T09:50:49.343Z,3.40
2022-10-26T09:53:16.253Z,2.97
2022-10-26T09:55:46.537Z,3.40
2022-10-26T09:58:17.543Z,3.35
2022-10-26T10:00:45.001Z,3.28
2022-10-26T10:03:26.291Z,3.30
2022-10-26T10:05:53.526Z,3.10
2022-10-26T10:08:19.993Z,3.55
2022-10-26T10:11:15.830Z,3.60
2022-10-26T10:13:44.672Z,3.92
2022-10-26T10:16:22.837Z,5.03
2022-10-26T10:18:59.941Z,4.95
2022-10-26T10:21:44.343Z,4.70
2022-10-26T10:24:41.241Z,4.03
2022-10-26T10:27:13.754Z,4.25
2022-10-26T10:29:42.650Z,3.33
2022-10-26T10:32:16.440Z,15.65
2022-10-26T10:34:43.633Z,13.73
2022-10-26T10:37:39.786Z,5.32
2022-10-26T10:40:18.886Z,3.50
2022-10-26T10:42:47.702Z,2.90
2022-10-26T10:45:24.074Z,3.30
2022-10-26T10:48:02.662Z,6.38
2022-10-26T10:50:30.192Z,3.90
2022-10-26T10:53:16.303Z,3.15
2022-10-26T10:55:52.686Z,3.10
2022-10-26T10:58:27.873Z,3.60
2022-10-26T11:00:56.362Z,3.15
2022-10-26T11:03:41.528Z,2.60
2022-10-26T11:06:18.856Z,2.95
2022-10-26T11:09:14.009Z,2.70
2022-10-26T11:11:52.775Z,3.83
2022-10-26T11:14:32.946Z,3.40
2022-10-26T11:17:20.273Z,2.42
2022-10-26T11:20:03.987Z,2.50
2022-10-26T11:22:36.487Z,2.10
2022-10-26T11:25:03.028Z,2.10
2022-10-26T11:27:37.852Z,2.20
2022-10-26T11:30:17.842Z,2.00
2022-10-26T11:32:51.391Z,2.25
2022-10-26T11:35:24.128Z,2.10
2022-10-26T11:38:16.077Z,1.88
2022-10-26T11:40:47.543Z,2.30
2022-10-26T11:43:35.594Z,1.92
2022-10-26T11:46:20.491Z,1.98
2022-10-26T11:49:02.139Z,2.10
2022-10-26T11:51:28.947Z,2.03
2022-10-26T11:53:58.029Z,2.28
2022-10-26T11:56:39.114Z,1.90
2022-10-26T11:59:10.356Z,1.92
2022-10-26T12:01:37.033Z,2.20
2022-10-26T12:04:04.055Z,2.15
2022-10-26T12:06:32.944Z,1.83
2022-10-26T12:09:16.907Z,1.90
2022-10-26T12:11:53.124Z,1.80
2022-10-26T12:14:28.195Z,1.55
2022-10-26T12:17:13.300Z,1.70
2022-10-26T12:20:02.959Z,1.60
2022-10-26T12:22:34.515Z,1.50
2022-10-26T12:25:15.189Z,1.60
2022-10-26T12:27:43.547Z,1.80
2022-10-26T12:30:18.920Z,1.90
2022-10-26T12:32:45.451Z,2.00
2022-10-26T12:35:40.702Z,2.03
2022-10-26T12:38:29.018Z,1.90
2022-10-26T12:41:05.777Z,1.83
2022-10-26T12:43:37.092Z,1.88
2022-10-26T12:46:12.924Z,1.88
2022-10-26T12:48:41.927Z,1.92
2022-10-26T12:51:20.843Z,2.10
2022-10-26T12:54:04.360Z,1.88
2022-10-26T12:56:36.327Z,1.70
2022-10-26T12:59:38.227Z,1.90
2022-10-26T13:02:10.837Z,1.80
2022-10-26T13:05:23.956Z,2.10
2022-10-26T13:07:51.398Z,1.92
2022-10-26T13:10:25.407Z,2.10
2022-10-26T13:12:58.191Z,1.98
2022-10-26T13:15:29.942Z,1.92
2022-10-26T13:18:01.224Z,2.00
2022-10-26T13:20:31.031Z,1.77
2022-10-26T13:22:58.181Z,1.90
2022-10-26T13:25:28.497Z,1.75
2022-10-26T13:28:01.325Z,1.90
2022-10-26T13:30:33.851Z,1.58
2022-10-26T13:33:02.657Z,2.05
2022-10-26T13:35:31.888Z,1.85
2022-10-26T13:38:07.274Z,2.10
2022-10-26T13:40:37.870Z,1.83
2022-10-26T13:43:10.798Z,1.67
2022-10-26T13:45:49.342Z,1.98
2022-10-26T13:48:27.756Z,1.52
2022-10-26T13:53:47.941Z,2.30
2022-10-26T13:57:01.295Z,1.75
2022-10-26T13:59:30.413Z,1.70
2022-10-26T14:02:07.555Z,1.95
2022-10-26T14:04:34.221Z,1.83
2022-10-26T14:07:00.790Z,1.80
2022-10-26T14:09:29.356Z,1.60
2022-10-26T14:11:59.113Z,1.95
2022-10-26T14:14:30.864Z,1.90
2022-10-26T14:16:58.708Z,1.70
2022-10-26T14:19:35.819Z,1.80
2022-10-26T14:22:03.547Z,1.75
2022-10-26T14:24:46.662Z,2.00
2022-10-26T14:27:18.279Z,1.85
2022-10-26T14:29:49.976Z,2.10
2022-10-26T14:32:28.140Z,1.73
2022-10-26T14:34:55.626Z,1.80
2022-10-26T14:37:31.380Z,2.08
2022-10-26T14:39:58.134Z,2.00
2022-10-26T14:42:30.492Z,1.90
2022-10-26T14:44:58.488Z,2.15
2022-10-26T14:47:30.803Z,2.13
2022-10-26T14:52:31.522Z,1.90
2022-10-26T14:55:04.824Z,2.15
2022-10-26T14:57:34.296Z,1.77
2022-10-26T15:00:06.013Z,1.85
2022-10-26T15:02:33.031Z,1.80
2022-10-26T15:05:02.297Z,2.00
2022-10-26T15:07:36.830Z,1.88
2022-10-26T15:10:04.997Z,2.35
2022-10-26T15:12:39.042Z,1.80
2022-10-26T15:15:14.970Z,1.83
2022-10-26T15:17:43.669Z,1.90
2022-10-26T15:20:19.407Z,1.90
2022-10-26T15:22:52.309Z,2.10
2022-10-26T15:25:22.516Z,2.08
2022-10-26T15:27:49.700Z,2.17
2022-10-26T15:30:18.895Z,1.80
2022-10-26T15:32:46.154Z,2.20
2022-10-26T15:35:18.632Z,2.22
2022-10-26T15:37:47.901Z,1.90
2022-10-26T15:40:14.935Z,2.00
2022-10-26T15:42:42.903Z,2.05
2022-10-26T15:45:22.931Z,1.88
2022-10-26T15:47:51.667Z,2.22
2022-10-26T15:50:21.409Z,2.13
2022-10-26T15:52:49.429Z,2.40
2022-10-26T15:55:17.469Z,2.65
2022-10-26T15:57:44.327Z,2.20
2022-10-26T16:00:15.726Z,2.08
2022-10-26T16:02:43.744Z,2.30
2022-10-26T16:05:11.667Z,2.50
2022-10-26T16:07:39.891Z,2.60
2022-10-26T16:10:06.739Z,2.08
2022-10-26T16:12:33.320Z,2.15
2022-10-26T16:15:05.657Z,2.20
2022-10-26T16:17:32.845Z,2.15
2022-10-26T16:19:59.409Z,2.35
2022-10-26T16:22:26.053Z,2.20
2022-10-26T16:24:52.554Z,2.28
2022-10-26T16:27:19.130Z,2.10
2022-10-26T16:29:45.726Z,2.58
2022-10-26T16:32:12.258Z,2.53
2022-10-26T16:34:39.690Z,2.20
2022-10-26T16:37:06.410Z,2.15
2022-10-26T16:39:32.916Z,2.38
2022-10-26T16:41:59.716Z,2.50
2022-10-26T16:44:26.253Z,2.78
2022-10-26T16:46:52.780Z,2.70
2022-10-26T16:49:19.292Z,2.33
2022-10-26T16:51:45.947Z,2.60
2022-10-26T16:54:12.452Z,2.72
2022-10-26T16:56:39.040Z,3.00
2022-10-26T16:59:05.662Z,2.50
2022-10-26T17:01:32.291Z,2.75
2022-10-26T17:03:58.952Z,2.75
2022-10-26T17:06:25.666Z,2.50
2022-10-26T17:08:52.168Z,3.03
2022-10-26T17:11:21.056Z,2.80
2022-10-26T17:13:48.030Z,3.28
2022-10-26T17:16:17.554Z,2.92
2022-10-26T17:18:45.035Z,2.90
2022-10-26T17:21:13.193Z,2.92
2022-10-26T17:23:40.211Z,3.10
2022-10-26T17:26:09.808Z,3.20
2022-10-26T17:28:37.508Z,33.45
2022-10-26T17:31:10.188Z,14.48
2022-10-26T17:33:38.711Z,11.32
2022-10-26T17:36:07.262Z,15.48
2022-10-26T17:38:36.912Z,13.25
2022-10-26T17:41:06.071Z,5.43
2022-10-26T17:43:34.900Z,8.75
2022-10-26T17:46:03.824Z,3.90
2022-10-26T17:48:31.449Z,3.78
2022-10-26T17:51:02.009Z,3.70
2022-10-26T17:53:30.074Z,3.58
2022-10-26T17:56:10.766Z,4.43
2022-10-26T17:58:38.021Z,4.93
2022-10-26T18:01:06.901Z,4.50
2022-10-26T18:03:34.279Z,4.32
2022-10-26T18:06:01.502Z,3.97
2022-10-26T18:08:31.815Z,4.38
2022-10-26T18:10:58.488Z,3.17
2022-10-26T18:13:27.259Z,3.55
2022-10-26T18:15:53.788Z,3.35
2022-10-26T18:18:20.624Z,4.20
2022-10-26T18:20:47.110Z,3.67
2022-10-26T18:23:13.723Z,4.00
2022-10-26T18:25:40.263Z,3.67
2022-10-26T18:28:06.894Z,3.42
2022-10-26T18:30:33.909Z,3.30
2022-10-26T18:33:00.673Z,3.33
2022-10-26T18:35:27.179Z,4.78
2022-10-26T18:37:54.084Z,5.13
2022-10-26T18:40:21.059Z,4.53
2022-10-26T18:42:47.655Z,4.30
2022-10-26T18:45:14.506Z,4.03
2022-10-26T18:47:41.152Z,4.13
2022-10-26T18:50:08.007Z,3.50
2022-10-26T18:52:34.584Z,3.65
2022-10-26T18:55:01.134Z,3.53
2022-10-26T18:57:28.176Z,3.28
2022-10-26T18:59:55.192Z,3.95
2022-10-26T19:02:22.252Z,3.17
2022-10-26T19:04:48.763Z,3.25
2022-10-26T19:07:15.347Z,3.42
2022-10-26T19:09:42.245Z,3.70
2022-10-26T19:12:08.858Z,3.25
2022-10-26T19:14:35.362Z,3.58
2022-10-26T19:17:02.112Z,3.65
2022-10-26T19:19:28.615Z,3.67
2022-10-26T19:21:55.169Z,3.55
2022-10-26T19:24:23.312Z,3.17
2022-10-26T19:26:50.824Z,3.10
2022-10-26T19:29:18.295Z,3.70
2022-10-26T19:31:46.389Z,3.00
2022-10-26T19:34:14.514Z,3.30
2022-10-26T19:36:41.297Z,3.33
2022-10-26T19:39:08.148Z,3.38
2022-10-26T19:41:34.712Z,3.30
2022-10-26T19:44:01.410Z,3.17
2022-10-26T19:46:29.379Z,3.20
2022-10-26T19:48:58.037Z,3.22
2022-10-26T19:51:26.625Z,3.47
2022-10-26T19:53:53.450Z,3.58
2022-10-26T19:56:20.380Z,3.70
2022-10-26T19:58:47.709Z,3.47
2022-10-26T20:01:15.804Z,3.45
2022-10-26T20:03:42.586Z,3.47
2022-10-26T20:06:10.582Z,3.60
2022-10-26T20:08:38.160Z,3.30
2022-10-26T20:11:08.968Z,3.50
2022-10-26T20:13:39.514Z,2.97
2022-10-26T20:16:07.211Z,3.17
2022-10-26T20:18:34.464Z,2.95
2022-10-26T20:21:01.030Z,3.28
2022-10-26T20:23:27.598Z,3.58
2022-10-26T20:25:54.121Z,3.58
2022-10-26T20:28:20.832Z,3.33
2022-10-26T20:30:48.925Z,3.67
2022-10-26T20:33:15.766Z,3.78
2022-10-26T20:35:42.695Z,3.53
2022-10-26T20:38:17.588Z,3.80
2022-10-26T20:40:45.057Z,3.60
2022-10-26T20:43:16.903Z,3.80
2022-10-26T20:45:43.769Z,3.78
2022-10-26T20:48:12.092Z,4.22
2022-10-26T20:50:40.544Z,4.05
2022-10-26T20:53:25.586Z,3.97
2022-10-26T20:55:54.910Z,4.22
2022-10-26T20:58:38.681Z,4.05
2022-10-26T21:01:27.107Z,4.07
2022-10-26T21:03:55.328Z,4.15
2022-10-26T21:06:22.519Z,4.40
2022-10-26T21:08:50.317Z,3.97
2022-10-26T21:11:17.914Z,4.22
2022-10-26T21:13:46.399Z,3.78
2022-10-26T21:16:16.951Z,4.15
2022-10-26T21:18:43.773Z,4.15
2022-10-26T21:21:10.396Z,4.22
2022-10-26T21:23:39.406Z,4.10
2022-10-26T21:26:06.815Z,4.05
2022-10-26T21:28:38.770Z,4.43
2022-10-26T21:31:07.459Z,4.30
2022-10-26T21:33:34.237Z,4.55
2022-10-26T21:36:09.276Z,4.43
2022-10-26T21:38:35.791Z,4.03
2022-10-26T21:41:04.565Z,4.30
2022-10-26T21:43:32.829Z,4.10
2022-10-26T21:46:03.562Z,3.65
2022-10-26T21:48:31.782Z,3.72
2022-10-26T21:50:58.399Z,3.72
2022-10-26T21:53:26.950Z,4.47
2022-10-26T21:56:05.334Z,4.20
2022-10-26T21:58:32.460Z,3.65
2022-10-26T22:01:06.154Z,3.70
2022-10-26T22:03:33.325Z,3.72
2022-10-26T22:06:00.089Z,3.83
2022-10-26T22:08:27.253Z,3.72
2022-10-26T22:10:53.814Z,4.28
2022-10-26T22:13:23.548Z,4.88
2022-10-26T22:16:00.529Z,5.10
2022-10-26T22:18:27.070Z,4.07
2022-10-26T22:20:59.875Z,4.80
2022-10-26T22:23:26.569Z,4.18
2022-10-26T22:25:53.079Z,3.70
2022-10-26T22:28:19.920Z,4.38
2022-10-26T22:30:46.471Z,4.13
2022-10-26T22:33:13.483Z,3.75
2022-10-26T22:35:39.982Z,3.70
2022-10-26T22:38:08.903Z,3.78
2022-10-26T22:40:35.396Z,3.53
2022-10-26T22:43:02.045Z,3.03
2022-10-26T22:45:28.716Z,2.90
2022-10-26T22:47:55.331Z,3.10
2022-10-26T22:50:21.862Z,2.65
2022-10-26T22:52:48.609Z,3.15
2022-10-26T22:55:15.343Z,2.90
2022-10-26T22:57:41.928Z,3.15
2022-10-26T23:00:09.124Z,3.05
2022-10-26T23:02:35.663Z,3.33
2022-10-26T23:05:02.173Z,4.20
2022-10-26T23:07:29.360Z,4.22
2022-10-26T23:09:56.104Z,3.78
2022-10-26T23:12:22.748Z,3.80
2022-10-26T23:14:49.332Z,3.88
2022-10-26T23:17:16.000Z,3.25
2022-10-26T23:19:42.486Z,3.92
2022-10-26T23:22:09.159Z,3.70
2022-10-26T23:24:35.669Z,3.70
2022-10-26T23:27:02.256Z,3.53
2022-10-26T23:29:28.798Z,3.88
2022-10-26T23:31:55.450Z,3.40
2022-10-26T23:34:21.945Z,4.15
2022-10-26T23:36:48.540Z,4.40
2022-10-26T23:39:15.049Z,4.32
2022-10-26T23:41:41.595Z,4.70
2022-10-26T23:44:08.160Z,4.75
2022-10-26T23:46:34.843Z,5.13
2022-10-26T23:49:01.467Z,6.13
2022-10-26T23:51:28.295Z,6.00
2022-10-26T23:53:54.809Z,6.43
2022-10-26T23:56:21.368Z,6.50
2022-10-26T23:58:50.876Z,6.22
